Portada
METAR-TAF:

METAR-TAF

Aeroports :

Simla, Índia

latitud: 31-04-54N, longitud: 77-04-05E, altitud: 1546 m

METAR: manca

Hora: 15:16 (09:46 UTC)

Pronòstic

L'informe es va fer fa 4 hores i 46 minuts, a les 05:00 UTC
Pronòstic vàlid del 08 a les 06 UTC al 08 a les 15 UTC
Vent 6 kt del Nord-Oest
Visibilitat: 5000 m
Escasses núvols a una alçada de 3500 ft
Núvols disperses a una alçada de 9000 ft
calitja
Evolucionant progressivament
l' 08 a les 10 UTC al 08 a les 12 UTC
Vent 8 kt del Nord/Nord-Oest
Visibilitat: 5000 m
Escasses núvols a una alçada de 3500 ft
Núvols disperses a una alçada de 9000 ft
calitja

TAF: VISM 080500Z 0806/0815 32006KT 5000 HZ FEW035 SCT090 BECMG 0810/0812 34008KT 5000 HZ FEW035 SCT090

Observacions i pronòstics meteorològics de més de 4000 aeroports (METAR i TAF).

Les estacions disponibles són els punts grocs i vermells al mapa.

Posi el ratolí al punt desitjat per veure el nom de l'estació.

Feu clic per veure les observacions i els pronòstics meteorològics.

Per canviar el mapa: feu clic els botons verds amb una creu de color negre per apropar; al botó verd amb un guió per allunyar la imatge; o en les fletxes verdes per a mapes adjacents.


METAR-TAF: